Huntingdon, Canada
Current Conditions -  °F | °C
As of 10:00 PM on Friday 19 Dec 2014 (Local Time) from CYUL Reporting Station
Clear Clear  
Wind Chill:   Ceiling: Unl
Heat Index: 14°   Visibility: 15mi
Dew Point:   Wind: 7mph
Humidity: 79%   Direction: 250°WSW
Pressure: 30.24"   Gusts: NA
Location:  45.08°N, 74.18°W
Report Text: CYUL 200300Z 25006KT 15SM SKC M10/M13 A3024 RMK SLP242
Loading
Personal Weather Stations






























Interactive Weather Map New forecast layout! Learn more

10-Day Weather Forecast

Advertisements
Track Severe Weather on mobile